createdAt,value
2022-09-09T00:00:15.749Z,12.70
2022-09-09T00:00:39.862Z,11.63
2022-09-09T00:01:21.736Z,12.20
2022-09-09T00:01:52.390Z,12.05
2022-09-09T00:02:30.250Z,11.98
2022-09-09T00:03:15.553Z,11.95
2022-09-09T00:04:00.981Z,11.88
2022-09-09T00:04:35.891Z,12.10
2022-09-09T00:05:14.199Z,12.38
2022-09-09T00:05:55.720Z,11.90
2022-09-09T00:06:26.868Z,12.02
2022-09-09T00:07:25.642Z,11.73
2022-09-09T00:07:54.492Z,11.20
2022-09-09T00:08:34.852Z,11.40
2022-09-09T00:09:18.302Z,12.07
2022-09-09T00:10:10.433Z,11.77
2022-09-09T00:10:40.675Z,12.13
2022-09-09T00:11:06.302Z,11.93
2022-09-09T00:11:37.669Z,11.45
2022-09-09T00:12:07.322Z,12.07
2022-09-09T00:12:50.461Z,11.50
2022-09-09T00:13:30.473Z,11.93
2022-09-09T00:13:55.939Z,11.88
2022-09-09T00:14:31.998Z,11.90
2022-09-09T00:15:21.733Z,11.70
2022-09-09T00:15:55.870Z,11.93
2022-09-09T00:16:29.518Z,11.57
2022-09-09T00:16:57.167Z,11.98
2022-09-09T00:17:43.972Z,11.60
2022-09-09T00:18:43.185Z,12.80
2022-09-09T00:19:27.698Z,11.32
2022-09-09T00:20:03.400Z,11.20
2022-09-09T00:20:30.583Z,11.60
2022-09-09T00:21:19.122Z,11.73
2022-09-09T00:22:15.061Z,11.40
2022-09-09T00:22:40.095Z,11.52
2022-09-09T00:23:16.885Z,11.68
2022-09-09T00:23:47.774Z,11.63
2022-09-09T00:24:20.641Z,11.70
2022-09-09T00:24:47.570Z,11.75
2022-09-09T00:25:17.924Z,11.95
2022-09-09T00:26:00.067Z,11.63
2022-09-09T00:26:43.376Z,11.38
2022-09-09T00:27:15.870Z,11.02
2022-09-09T00:27:48.091Z,11.43
2022-09-09T00:28:20.306Z,11.38
2022-09-09T00:28:59.445Z,11.18
2022-09-09T00:29:48.448Z,10.93
2022-09-09T00:30:20.790Z,11.20
2022-09-09T00:30:42.922Z,11.18
2022-09-09T00:31:21.099Z,11.27
2022-09-09T00:31:43.401Z,11.10
2022-09-09T00:32:19.601Z,10.95
2022-09-09T00:32:41.816Z,11.15
2022-09-09T00:33:16.547Z,10.90
2022-09-09T00:33:41.452Z,11.13
2022-09-09T00:34:25.609Z,11.18
2022-09-09T00:34:54.947Z,11.05
2022-09-09T00:35:26.870Z,11.25
2022-09-09T00:35:52.324Z,11.68
2022-09-09T00:36:17.038Z,11.25
2022-09-09T00:36:40.189Z,11.35
2022-09-09T00:37:04.403Z,11.60
2022-09-09T00:37:27.643Z,10.85
2022-09-09T00:37:54.177Z,10.45
2022-09-09T00:38:38.202Z,10.73
2022-09-09T00:39:03.817Z,10.93
2022-09-09T00:39:25.678Z,11.15
2022-09-09T00:39:49.318Z,10.93
2022-09-09T00:40:35.307Z,11.30
2022-09-09T00:41:08.824Z,11.13
2022-09-09T00:41:49.099Z,10.88
2022-09-09T00:42:45.701Z,10.77
2022-09-09T00:43:31.238Z,11.45
2022-09-09T00:44:22.621Z,11.63
2022-09-09T00:44:56.725Z,10.60
2022-09-09T00:45:52.488Z,10.80
2022-09-09T00:46:32.868Z,10.98
2022-09-09T00:47:40.692Z,11.45
2022-09-09T00:48:12.912Z,10.52
2022-09-09T00:49:02.750Z,11.10
2022-09-09T00:50:01.436Z,11.27
2022-09-09T00:50:50.450Z,11.13
2022-09-09T00:51:43.256Z,11.05
2022-09-09T00:52:24.303Z,11.30
2022-09-09T00:52:59.397Z,10.90
2022-09-09T00:53:34.918Z,11.57
2022-09-09T00:54:21.468Z,11.32
2022-09-09T00:55:13.975Z,11.10
2022-09-09T00:56:05.501Z,11.93
2022-09-09T00:56:37.038Z,11.45
2022-09-09T00:57:24.983Z,11.23
2022-09-09T00:57:49.358Z,10.80
2022-09-09T00:58:11.129Z,11.52
2022-09-09T00:58:38.427Z,11.38
2022-09-09T00:59:28.467Z,11.80
2022-09-09T01:00:16.120Z,11.50
2022-09-09T01:01:12.593Z,11.00
2022-09-09T01:01:36.721Z,11.23
2022-09-09T01:02:00.299Z,11.38
2022-09-09T01:02:30.537Z,11.43
2022-09-09T01:03:21.701Z,11.35
2022-09-09T01:03:51.625Z,11.20
2022-09-09T01:04:23.702Z,11.18
2022-09-09T01:04:45.708Z,11.35
2022-09-09T01:05:21.570Z,11.32
2022-09-09T01:06:53.858Z,10.95
2022-09-09T01:07:20.107Z,11.68
2022-09-09T01:07:48.981Z,11.15
2022-09-09T01:08:36.147Z,11.13
2022-09-09T01:09:19.188Z,10.88
2022-09-09T01:09:52.476Z,10.77
2022-09-09T01:10:39.525Z,11.13
2022-09-09T01:11:03.250Z,11.88
2022-09-09T01:11:46.766Z,11.93
2022-09-09T01:12:17.443Z,11.80
2022-09-09T01:12:44.820Z,11.30
2022-09-09T01:13:14.834Z,11.48
2022-09-09T01:13:37.455Z,11.18
2022-09-09T01:14:34.155Z,11.43
2022-09-09T01:15:09.886Z,11.63
2022-09-09T01:15:33.766Z,11.50
2022-09-09T01:15:59.842Z,12.10
2022-09-09T01:16:27.112Z,11.70
2022-09-09T01:16:50.249Z,11.40
2022-09-09T01:17:36.126Z,11.75
2022-09-09T01:18:06.166Z,11.15
2022-09-09T01:18:35.627Z,11.10
2022-09-09T01:18:59.665Z,11.63
2022-09-09T01:19:36.976Z,11.30
2022-09-09T01:20:34.898Z,11.65
2022-09-09T01:21:03.444Z,11.93
2022-09-09T01:21:46.547Z,11.38
2022-09-09T01:22:19.887Z,11.15
2022-09-09T01:22:46.476Z,11.45
2022-09-09T01:23:50.128Z,11.57
2022-09-09T01:24:14.874Z,11.00
2022-09-09T01:24:55.559Z,11.27
2022-09-09T01:25:41.700Z,11.52
2022-09-09T01:26:11.945Z,11.63
2022-09-09T01:26:38.416Z,11.23
2022-09-09T01:27:03.664Z,10.73
2022-09-09T01:27:26.453Z,11.68
2022-09-09T01:27:50.745Z,11.70
2022-09-09T01:28:23.069Z,11.15
2022-09-09T01:28:51.144Z,11.40
2022-09-09T01:29:18.759Z,11.70
2022-09-09T01:29:42.382Z,11.73
2022-09-09T01:30:13.719Z,11.18
2022-09-09T01:30:41.526Z,11.55
2022-09-09T01:31:07.837Z,11.23
2022-09-09T01:31:53.389Z,11.50
2022-09-09T01:32:40.555Z,11.55
2022-09-09T01:33:03.880Z,11.90
2022-09-09T01:33:26.071Z,11.23
2022-09-09T01:33:48.798Z,12.02
2022-09-09T01:34:13.492Z,12.15
2022-09-09T01:34:40.140Z,11.43
2022-09-09T01:35:03.266Z,11.05
2022-09-09T01:35:42.549Z,11.35
2022-09-09T01:36:47.513Z,11.43
2022-09-09T01:37:13.124Z,11.55
2022-09-09T01:37:34.901Z,11.73
2022-09-09T01:37:57.189Z,11.75
2022-09-09T01:38:19.611Z,11.45
2022-09-09T01:38:42.286Z,11.35
2022-09-09T01:39:04.216Z,11.68
2022-09-09T01:39:26.982Z,11.20
2022-09-09T01:39:49.546Z,11.18
2022-09-09T01:40:11.817Z,11.63
2022-09-09T01:40:37.154Z,11.23
2022-09-09T01:40:59.658Z,11.45
2022-09-09T01:41:22.655Z,11.27
2022-09-09T01:41:45.222Z,11.50
2022-09-09T01:42:10.519Z,11.57
2022-09-09T01:42:32.630Z,11.48
2022-09-09T01:42:55.361Z,11.77
2022-09-09T01:43:18.397Z,11.23
2022-09-09T01:43:40.803Z,11.60
2022-09-09T01:44:03.748Z,11.25
2022-09-09T01:44:27.359Z,12.02
2022-09-09T01:44:49.132Z,11.93
2022-09-09T01:45:11.680Z,11.32
2022-09-09T01:45:34.515Z,10.93
2022-09-09T01:46:00.131Z,11.63
2022-09-09T01:46:28.188Z,11.60
2022-09-09T01:46:50.522Z,11.45
2022-09-09T01:47:12.373Z,11.57
2022-09-09T01:47:34.334Z,11.65
2022-09-09T01:47:57.492Z,10.98
2022-09-09T01:48:23.706Z,11.00
2022-09-09T01:48:46.873Z,10.73
2022-09-09T01:49:10.025Z,10.77
2022-09-09T01:49:33.800Z,10.93
2022-09-09T01:49:55.878Z,11.20
2022-09-09T01:50:18.130Z,11.00
2022-09-09T01:50:39.877Z,10.73
2022-09-09T01:51:01.631Z,10.85
2022-09-09T01:51:24.201Z,11.00
2022-09-09T01:51:50.786Z,11.02
2022-09-09T01:52:12.633Z,11.88
2022-09-09T01:52:39.730Z,11.30
2022-09-09T01:53:04.278Z,10.73
2022-09-09T01:53:29.161Z,10.90
2022-09-09T01:53:51.553Z,10.82
2022-09-09T01:54:13.990Z,10.55
2022-09-09T01:54:36.696Z,11.07
2022-09-09T01:54:59.046Z,10.93
2022-09-09T01:55:38.951Z,10.77
2022-09-09T01:56:09.227Z,10.50
2022-09-09T01:56:51.252Z,11.30
2022-09-09T01:57:27.978Z,11.43
2022-09-09T01:58:13.569Z,10.73
2022-09-09T01:59:02.967Z,10.88
2022-09-09T01:59:52.230Z,10.93
2022-09-09T02:00:15.932Z,10.82
2022-09-09T02:00:43.096Z,11.25
2022-09-09T02:01:16.346Z,10.95
2022-09-09T02:02:06.565Z,11.43
2022-09-09T02:02:48.199Z,10.63
2022-09-09T02:03:29.869Z,10.90
2022-09-09T02:03:57.308Z,10.88
2022-09-09T02:04:38.079Z,11.43
2022-09-09T02:05:31.439Z,10.93
2022-09-09T02:06:11.759Z,11.05
2022-09-09T02:06:40.919Z,11.15
2022-09-09T02:07:02.817Z,11.32
2022-09-09T02:07:47.663Z,11.63
2022-09-09T02:08:14.578Z,10.93
2022-09-09T02:08:51.713Z,11.00
2022-09-09T02:09:14.972Z,11.30
2022-09-09T02:09:38.945Z,11.32
2022-09-09T02:10:23.344Z,11.02
2022-09-09T02:10:57.740Z,10.60
2022-09-09T02:11:31.867Z,11.15
2022-09-09T02:12:16.607Z,11.35
2022-09-09T02:12:45.327Z,11.85
2022-09-09T02:13:12.642Z,11.40
2022-09-09T02:13:37.237Z,11.52
2022-09-09T02:14:23.931Z,11.50
2022-09-09T02:14:56.521Z,11.30
2022-09-09T02:15:31.375Z,10.98
2022-09-09T02:16:08.942Z,11.45
2022-09-09T02:16:41.869Z,11.32
2022-09-09T02:17:11.154Z,11.75
2022-09-09T02:17:36.977Z,11.23
2022-09-09T02:17:59.868Z,10.98
2022-09-09T02:18:32.729Z,11.10
2022-09-09T02:19:16.650Z,11.13
2022-09-09T02:20:11.394Z,11.23
2022-09-09T02:20:35.180Z,11.35
2022-09-09T02:20:59.087Z,11.45
2022-09-09T02:21:23.181Z,11.75
2022-09-09T02:21:52.042Z,11.90
2022-09-09T02:22:25.839Z,11.57
2022-09-09T02:22:51.527Z,11.77
2022-09-09T02:23:15.527Z,11.52
2022-09-09T02:23:45.355Z,11.57
2022-09-09T02:24:11.356Z,11.23
2022-09-09T02:24:38.860Z,11.88
2022-09-09T02:25:01.644Z,11.35
2022-09-09T02:25:43.380Z,11.20
2022-09-09T02:26:16.250Z,11.43
2022-09-09T02:26:46.542Z,11.52
2022-09-09T02:27:22.108Z,11.52
2022-09-09T02:27:46.460Z,11.70
2022-09-09T02:28:10.979Z,11.70
2022-09-09T02:28:38.611Z,11.18
2022-09-09T02:29:25.440Z,11.68
2022-09-09T02:30:00.217Z,11.27
2022-09-09T02:31:26.830Z,11.50
2022-09-09T02:32:24.378Z,11.27
2022-09-09T02:34:02.785Z,12.05
2022-09-09T02:34:40.435Z,12.40
2022-09-09T02:35:08.218Z,11.50
2022-09-09T02:35:31.554Z,11.70
2022-09-09T02:35:55.004Z,11.55
2022-09-09T02:36:17.774Z,11.73
2022-09-09T02:36:42.607Z,11.70
2022-09-09T02:37:07.951Z,11.50
2022-09-09T02:37:45.100Z,11.85
2022-09-09T02:38:14.064Z,11.57
2022-09-09T02:38:41.164Z,12.18
2022-09-09T02:39:04.191Z,11.52
2022-09-09T02:39:27.509Z,11.88
2022-09-09T02:39:49.397Z,11.63
2022-09-09T02:40:14.488Z,11.55
2022-09-09T02:40:36.567Z,11.50
2022-09-09T02:40:59.365Z,11.85
2022-09-09T02:41:27.448Z,11.32
2022-09-09T02:41:49.731Z,11.52
2022-09-09T02:42:11.919Z,11.93
2022-09-09T02:42:39.220Z,12.05
2022-09-09T02:43:01.449Z,11.57
2022-09-09T02:43:25.044Z,11.82
2022-09-09T02:43:52.949Z,11.57
2022-09-09T02:44:25.736Z,11.40
2022-09-09T02:44:47.886Z,11.60
2022-09-09T02:45:11.700Z,11.30
2022-09-09T02:45:43.533Z,11.60
2022-09-09T02:46:26.102Z,11.75
2022-09-09T02:47:26.215Z,11.23
2022-09-09T02:48:15.897Z,12.23
2022-09-09T02:48:54.242Z,12.18
2022-09-09T02:49:22.137Z,11.43
2022-09-09T02:50:14.430Z,11.23
2022-09-09T02:51:01.966Z,12.05
2022-09-09T02:51:28.166Z,12.05
2022-09-09T02:51:58.904Z,11.63
2022-09-09T02:52:37.240Z,11.93
2022-09-09T02:53:17.513Z,11.50
2022-09-09T02:53:56.100Z,11.00
2022-09-09T02:54:33.115Z,11.50
2022-09-09T02:55:04.055Z,11.32
2022-09-09T02:55:41.258Z,11.53
2022-09-09T02:56:31.761Z,11.50
2022-09-09T02:56:58.845Z,11.27
2022-09-09T02:57:58.033Z,11.55
2022-09-09T02:59:12.796Z,11.68
2022-09-09T03:01:22.136Z,11.38
2022-09-09T03:02:09.816Z,11.32
2022-09-09T03:02:33.779Z,11.73
2022-09-09T03:02:56.427Z,11.18
2022-09-09T03:03:20.766Z,11.80
2022-09-09T03:04:19.099Z,10.93
2022-09-09T03:04:43.053Z,11.52
2022-09-09T03:05:06.198Z,11.50
2022-09-09T03:05:28.973Z,11.70
2022-09-09T03:05:50.972Z,10.98
2022-09-09T03:06:12.901Z,10.57
2022-09-09T03:06:35.584Z,11.57
2022-09-09T03:06:58.103Z,11.70
2022-09-09T03:07:20.914Z,11.48
2022-09-09T03:07:42.773Z,11.32
2022-09-09T03:08:06.586Z,11.90
2022-09-09T03:09:25.115Z,11.50
2022-09-09T03:13:39.987Z,10.90
2022-09-09T03:16:06.208Z,11.68
2022-09-09T03:18:44.300Z,10.77
2022-09-09T03:19:07.298Z,11.23
2022-09-09T03:19:32.285Z,10.70
2022-09-09T03:19:55.742Z,11.45
2022-09-09T03:20:18.181Z,11.30
2022-09-09T03:20:42.092Z,11.15
2022-09-09T03:22:07.674Z,11.60
2022-09-09T03:22:30.035Z,12.02
2022-09-09T03:22:52.709Z,11.65
2022-09-09T03:23:15.972Z,10.85
2022-09-09T03:23:38.792Z,10.82
2022-09-09T03:24:01.412Z,11.55
2022-09-09T03:24:24.143Z,11.50
2022-09-09T03:25:35.201Z,11.45
2022-09-09T03:25:59.999Z,11.20
2022-09-09T03:26:22.319Z,12.27
2022-09-09T03:26:45.912Z,11.90
2022-09-09T03:27:08.407Z,11.85
2022-09-09T03:27:31.521Z,11.18
2022-09-09T03:27:56.072Z,11.07
2022-09-09T03:28:18.439Z,11.48
2022-09-09T03:28:40.468Z,11.13
2022-09-09T03:29:02.577Z,11.43
2022-09-09T03:29:26.914Z,11.13
2022-09-09T03:29:52.243Z,10.55
2022-09-09T03:30:16.420Z,11.52
2022-09-09T03:30:39.115Z,11.40
2022-09-09T03:32:21.471Z,11.05
2022-09-09T03:32:47.150Z,11.52
2022-09-09T03:33:11.000Z,11.07
2022-09-09T03:33:35.393Z,11.45
2022-09-09T03:34:00.455Z,11.85
2022-09-09T03:34:23.136Z,11.60
2022-09-09T03:34:46.235Z,11.63
2022-09-09T03:35:09.314Z,11.52
2022-09-09T03:35:31.194Z,11.82
2022-09-09T03:35:53.548Z,11.48
2022-09-09T03:36:17.567Z,11.05
2022-09-09T03:36:39.985Z,11.48
2022-09-09T03:39:06.144Z,11.88
2022-09-09T03:39:28.481Z,11.02
2022-09-09T03:39:50.686Z,11.38
2022-09-09T03:41:36.369Z,11.68
2022-09-09T03:41:58.581Z,11.38
2022-09-09T03:42:21.112Z,11.25
2022-09-09T03:42:49.489Z,11.65
2022-09-09T03:43:14.613Z,11.27
2022-09-09T03:43:37.684Z,10.80
2022-09-09T03:44:43.209Z,11.50
2022-09-09T03:45:12.778Z,11.52
2022-09-09T03:45:40.951Z,11.13
2022-09-09T03:46:31.762Z,11.77
2022-09-09T03:46:55.124Z,11.45
2022-09-09T03:47:29.668Z,11.30
2022-09-09T03:48:51.846Z,11.80
2022-09-09T03:49:15.965Z,10.77
2022-09-09T03:50:05.400Z,10.98
2022-09-09T03:50:58.296Z,11.02
2022-09-09T03:51:31.510Z,11.52
2022-09-09T03:52:23.934Z,11.60
2022-09-09T03:52:47.644Z,11.20
2022-09-09T03:53:11.329Z,11.50
2022-09-09T03:53:34.377Z,11.40
2022-09-09T03:54:12.118Z,11.27
2022-09-09T03:55:32.758Z,11.40
2022-09-09T07:27:37.392Z,9.60
2022-09-09T07:27:59.572Z,9.77
2022-09-09T07:28:22.498Z,9.93
2022-09-09T07:28:44.992Z,9.98
2022-09-09T07:29:09.688Z,9.60
2022-09-09T07:29:36.516Z,9.38
2022-09-09T07:30:00.288Z,9.38
2022-09-09T07:30:27.033Z,9.35
2022-09-09T07:31:03.770Z,10.15
2022-09-09T07:31:37.895Z,9.88
2022-09-09T07:32:00.570Z,9.70
2022-09-09T07:32:28.010Z,10.20
2022-09-09T07:32:53.219Z,9.68
2022-09-09T07:33:15.414Z,10.32
2022-09-09T07:33:37.856Z,10.10
2022-09-09T07:34:03.649Z,9.63
2022-09-09T07:34:26.008Z,10.05
2022-09-09T07:34:48.120Z,9.68
2022-09-09T07:35:13.724Z,9.60
2022-09-09T07:35:38.629Z,10.13
2022-09-09T07:36:13.687Z,10.68
2022-09-09T07:36:40.435Z,10.13
2022-09-09T07:37:03.132Z,10.10
2022-09-09T07:37:37.689Z,9.65
2022-09-09T07:38:02.926Z,10.40
2022-09-09T07:38:24.859Z,10.38
2022-09-09T07:38:53.096Z,10.32
2022-09-09T07:39:27.055Z,10.13
2022-09-09T07:39:52.315Z,10.50
2022-09-09T07:40:22.117Z,10.30
2022-09-09T07:40:44.777Z,9.68
2022-09-09T07:41:15.152Z,9.93
2022-09-09T07:41:45.979Z,10.05
2022-09-09T07:42:08.089Z,10.15
2022-09-09T07:42:31.991Z,10.50
2022-09-09T07:42:57.746Z,10.05
2022-09-09T07:43:19.952Z,9.80
2022-09-09T07:43:46.309Z,10.50
2022-09-09T07:44:22.856Z,10.20
2022-09-09T07:44:44.953Z,10.52
2022-09-09T07:45:10.050Z,10.45
2022-09-09T07:45:33.905Z,10.63
2022-09-09T07:46:02.634Z,10.45
2022-09-09T07:46:26.994Z,10.20
2022-09-09T07:46:49.123Z,10.68
2022-09-09T07:47:11.106Z,10.15
2022-09-09T07:47:33.340Z,9.93
2022-09-09T07:47:57.913Z,10.52
2022-09-09T07:48:20.190Z,10.07
2022-09-09T07:48:53.536Z,10.25
2022-09-09T07:49:24.428Z,10.07
2022-09-09T07:49:50.945Z,10.00
2022-09-09T07:50:12.991Z,10.50
2022-09-09T07:50:34.982Z,10.05
2022-09-09T07:51:09.211Z,9.98
2022-09-09T07:51:33.902Z,10.65
2022-09-09T07:51:55.930Z,10.23
2022-09-09T07:52:20.057Z,10.35
2022-09-09T07:52:42.929Z,10.55
2022-09-09T07:53:06.205Z,10.13
2022-09-09T07:53:28.187Z,9.80
2022-09-09T07:53:54.603Z,10.23
2022-09-09T07:54:21.508Z,9.90
2022-09-09T07:54:46.760Z,10.52
2022-09-09T07:55:08.618Z,10.02
2022-09-09T07:55:32.521Z,10.30
2022-09-09T07:59:09.823Z,10.38
2022-09-09T07:59:31.733Z,10.18
2022-09-09T07:59:54.731Z,10.30
2022-09-09T08:00:20.503Z,10.68
2022-09-09T08:00:44.652Z,10.18
2022-09-09T08:01:13.514Z,10.35
2022-09-09T08:01:41.372Z,10.75
2022-09-09T08:02:03.305Z,10.65
2022-09-09T08:02:27.597Z,10.82
2022-09-09T08:02:50.003Z,10.68
2022-09-09T08:03:11.950Z,11.18
2022-09-09T08:03:33.904Z,11.32
2022-09-09T08:04:02.729Z,11.25
2022-09-09T08:04:26.364Z,11.02
2022-09-09T08:04:48.571Z,11.13
2022-09-09T08:05:10.554Z,11.30
2022-09-09T08:05:32.503Z,11.15
2022-09-09T08:05:54.305Z,11.40
2022-09-09T08:06:16.121Z,11.25
2022-09-09T08:06:45.002Z,11.20
2022-09-09T08:07:07.337Z,11.18
2022-09-09T08:07:29.637Z,10.70
2022-09-09T08:07:51.903Z,11.30
2022-09-09T08:08:14.151Z,10.90
2022-09-09T08:08:43.548Z,11.60
2022-09-09T08:09:09.603Z,11.77
2022-09-09T08:09:33.404Z,11.23
2022-09-09T08:09:58.217Z,11.05
2022-09-09T08:10:20.793Z,11.52
2022-09-09T08:10:43.045Z,11.48
2022-09-09T08:11:11.745Z,12.18
2022-09-09T08:11:38.720Z,11.97
2022-09-09T08:12:02.546Z,11.82
2022-09-09T08:12:27.192Z,11.85
2022-09-09T08:13:07.948Z,11.90
2022-09-09T08:13:32.646Z,12.00
2022-09-09T08:14:00.244Z,12.10
2022-09-09T08:14:24.323Z,12.02
2022-09-09T08:14:46.320Z,11.65
2022-09-09T08:15:08.875Z,12.25
2022-09-09T08:15:35.635Z,12.55
2022-09-09T08:16:14.702Z,11.57
2022-09-09T08:16:39.530Z,12.13
2022-09-09T08:17:01.744Z,11.60
2022-09-09T08:17:23.649Z,12.18
2022-09-09T08:17:48.480Z,12.15
2022-09-09T08:18:10.412Z,12.27
2022-09-09T08:18:32.288Z,12.23
2022-09-09T08:18:56.072Z,12.50
2022-09-09T08:19:18.129Z,12.25
2022-09-09T08:19:40.111Z,11.88
2022-09-09T08:20:06.059Z,11.98
2022-09-09T08:20:28.399Z,12.30
2022-09-09T08:20:50.343Z,12.40
2022-09-09T08:21:18.761Z,12.00
2022-09-09T08:21:42.688Z,11.88
2022-09-09T08:22:05.972Z,12.52
2022-09-09T08:22:28.215Z,12.18
2022-09-09T08:22:50.970Z,12.13
2022-09-09T08:23:17.089Z,12.02
2022-09-09T08:23:43.425Z,12.20
2022-09-09T08:24:11.238Z,11.50
2022-09-09T08:24:33.225Z,11.75
2022-09-09T08:24:58.131Z,11.80
2022-09-09T08:25:20.410Z,11.80
2022-09-09T08:25:46.191Z,11.48
2022-09-09T08:26:17.653Z,11.25
2022-09-09T08:26:45.064Z,12.32
2022-09-09T08:27:07.791Z,11.85
2022-09-09T08:27:29.810Z,12.18
2022-09-09T08:28:00.340Z,12.00
2022-09-09T08:28:23.913Z,11.75
2022-09-09T08:28:46.056Z,11.73
2022-09-09T08:29:10.498Z,11.98
2022-09-09T08:29:36.345Z,11.93
2022-09-09T08:30:02.057Z,11.80
2022-09-09T08:30:24.053Z,11.75
2022-09-09T08:30:47.484Z,11.98
2022-09-09T08:31:10.967Z,11.45
2022-09-09T08:31:36.642Z,11.88
2022-09-09T08:32:03.130Z,11.77
2022-09-09T08:32:27.932Z,12.05
2022-09-09T08:32:53.879Z,12.18
2022-09-09T08:33:16.414Z,12.35
2022-09-09T08:33:40.393Z,12.32
2022-09-09T08:34:06.176Z,12.25
2022-09-09T08:34:29.113Z,12.52
2022-09-09T08:34:54.539Z,12.25
2022-09-09T08:35:17.072Z,12.32
2022-09-09T08:35:39.737Z,12.45
2022-09-09T08:36:01.736Z,12.35
2022-09-09T08:36:26.781Z,12.30
2022-09-09T08:36:52.409Z,12.32
2022-09-09T08:37:14.871Z,12.30
2022-09-09T08:37:36.948Z,12.35
2022-09-09T08:37:58.919Z,12.45
2022-09-09T08:38:23.334Z,12.32
2022-09-09T08:38:48.443Z,12.25
2022-09-09T08:39:13.500Z,12.60
2022-09-09T08:39:35.476Z,12.30
2022-09-09T08:39:57.549Z,12.50
2022-09-09T08:40:39.421Z,12.85
2022-09-09T08:41:44.164Z,12.50
2022-09-09T08:42:24.515Z,12.30
2022-09-09T08:42:55.527Z,12.40
2022-09-09T08:43:20.314Z,12.20
2022-09-09T08:43:45.357Z,11.75
2022-09-09T08:44:25.577Z,11.15
2022-09-09T08:44:59.156Z,11.95
2022-09-09T08:45:31.987Z,12.50
2022-09-09T08:46:13.948Z,12.23
2022-09-09T08:46:46.693Z,11.98
2022-09-09T08:47:48.506Z,12.75
2022-09-09T08:48:50.531Z,12.13
2022-09-09T08:49:18.315Z,12.82
2022-09-09T08:50:19.124Z,12.88
2022-09-09T08:50:44.704Z,12.90
2022-09-09T08:51:08.554Z,12.77
2022-09-09T08:51:34.603Z,12.75
2022-09-09T08:51:58.482Z,13.25
2022-09-09T08:52:32.610Z,13.32
2022-09-09T08:53:17.607Z,12.60
2022-09-09T08:53:46.160Z,12.50
2022-09-09T08:54:10.229Z,13.25
2022-09-09T08:54:51.797Z,13.07
2022-09-09T08:55:44.351Z,12.50
2022-09-09T08:56:14.246Z,12.65
2022-09-09T08:56:37.274Z,12.63
2022-09-09T08:56:59.140Z,12.38
2022-09-09T08:57:27.943Z,12.68
2022-09-09T08:57:56.879Z,12.50
2022-09-09T08:58:27.145Z,12.15
2022-09-09T08:58:52.189Z,12.25
2022-09-09T08:59:20.302Z,12.93
2022-09-09T08:59:42.338Z,12.93
2022-09-09T09:00:04.901Z,12.52
2022-09-09T09:00:41.455Z,11.95
2022-09-09T09:01:40.664Z,12.20
2022-09-09T09:02:25.444Z,12.32
2022-09-09T09:03:02.298Z,12.18
2022-09-09T09:03:34.265Z,12.23
2022-09-09T09:04:29.140Z,11.65
2022-09-09T09:05:11.851Z,12.00
2022-09-09T09:05:47.283Z,12.38
2022-09-09T09:06:40.476Z,12.40
2022-09-09T09:07:33.012Z,12.68
2022-09-09T09:08:01.015Z,12.02
2022-09-09T09:09:07.151Z,12.05
2022-09-09T09:09:40.724Z,12.13
2022-09-09T09:10:39.916Z,12.47
2022-09-09T09:11:01.671Z,12.38
2022-09-09T09:11:23.640Z,12.27
2022-09-09T09:11:53.625Z,11.88
2022-09-09T09:12:22.995Z,12.43
2022-09-09T09:12:48.633Z,12.55
2022-09-09T09:13:17.027Z,12.63
2022-09-09T09:13:49.065Z,12.45
2022-09-09T09:14:56.570Z,12.32
2022-09-09T09:15:28.332Z,11.98
2022-09-09T09:15:59.110Z,11.95
2022-09-09T09:16:39.180Z,13.02
2022-09-09T09:17:08.365Z,12.68
2022-09-09T09:17:34.267Z,12.35
2022-09-09T09:17:56.481Z,13.15
2022-09-09T09:18:18.845Z,12.88
2022-09-09T09:18:40.808Z,13.00
2022-09-09T09:19:03.392Z,12.93
2022-09-09T09:19:27.355Z,12.70
2022-09-09T09:19:51.104Z,13.30
2022-09-09T09:20:19.647Z,12.70
2022-09-09T09:21:08.916Z,12.77
2022-09-09T09:21:42.687Z,12.73
2022-09-09T09:22:23.271Z,13.38
2022-09-09T09:22:55.696Z,13.13
2022-09-09T09:23:26.504Z,12.07
2022-09-09T09:24:00.776Z,12.77
2022-09-09T09:24:33.523Z,12.73
2022-09-09T09:25:00.765Z,12.40
2022-09-09T09:25:36.655Z,12.48
2022-09-09T09:26:04.088Z,12.85
2022-09-09T09:26:33.994Z,13.05
2022-09-09T09:26:56.290Z,12.80
2022-09-09T09:27:32.528Z,13.05
2022-09-09T09:28:18.526Z,12.88
2022-09-09T09:28:41.350Z,12.52
2022-09-09T09:29:16.224Z,12.40
2022-09-09T09:30:03.524Z,12.90
2022-09-09T09:30:30.341Z,13.38
2022-09-09T09:31:16.173Z,12.80
2022-09-09T09:31:41.048Z,13.20
2022-09-09T09:32:04.318Z,12.90
2022-09-09T09:32:32.818Z,13.30
2022-09-09T09:33:00.183Z,12.55
2022-09-09T09:33:29.552Z,12.60
2022-09-09T09:33:56.386Z,13.40
2022-09-09T09:34:19.118Z,13.50
2022-09-09T09:34:41.520Z,13.65
2022-09-09T09:35:11.186Z,12.98
2022-09-09T09:35:38.657Z,12.85
2022-09-09T09:36:04.355Z,13.00
2022-09-09T09:36:56.671Z,12.90
2022-09-09T09:37:29.437Z,13.68
2022-09-09T09:40:15.976Z,13.88
2022-09-09T09:40:56.461Z,12.93
2022-09-09T09:41:36.981Z,13.30
2022-09-09T09:42:02.646Z,13.13
2022-09-09T09:42:28.131Z,12.18
2022-09-09T09:43:09.014Z,13.35
2022-09-09T09:43:34.822Z,13.50
2022-09-09T09:43:56.806Z,13.23
2022-09-09T09:44:33.151Z,13.13
2022-09-09T09:44:55.060Z,12.55
2022-09-09T09:45:36.439Z,13.57
2022-09-09T09:46:43.255Z,13.27
2022-09-09T09:47:31.847Z,13.40
2022-09-09T09:48:07.481Z,14.15
2022-09-09T09:48:36.231Z,14.25
2022-09-09T09:49:03.533Z,13.88
2022-09-09T09:49:28.657Z,13.65
2022-09-09T09:50:03.563Z,14.38
2022-09-09T09:50:27.726Z,13.82
2022-09-09T09:50:57.748Z,14.05
2022-09-09T09:51:22.782Z,14.90
2022-09-09T09:51:45.025Z,14.90
2022-09-09T09:52:23.176Z,14.45
2022-09-09T09:52:59.049Z,14.27
2022-09-09T09:53:27.796Z,13.93
2022-09-09T09:53:50.782Z,15.27
2022-09-09T09:54:18.301Z,14.43
2022-09-09T09:54:43.308Z,14.27
2022-09-09T09:55:13.928Z,14.95
2022-09-09T09:55:38.034Z,14.65
2022-09-09T09:56:06.340Z,14.15
2022-09-09T09:56:33.554Z,14.25
2022-09-09T09:57:08.716Z,14.55
2022-09-09T09:57:33.157Z,14.45
2022-09-09T09:57:56.472Z,14.52
2022-09-09T09:58:18.872Z,14.25
2022-09-09T09:58:54.272Z,15.70
2022-09-09T09:59:39.635Z,14.73
2022-09-09T10:00:16.300Z,15.32
2022-09-09T10:00:50.727Z,15.65
2022-09-09T10:01:30.933Z,15.45
2022-09-09T10:01:55.207Z,15.27
2022-09-09T10:02:26.880Z,15.13
2022-09-09T10:02:55.290Z,15.15
2022-09-09T10:03:30.264Z,15.02
2022-09-09T10:04:19.922Z,15.02
2022-09-09T10:04:42.625Z,15.27
2022-09-09T10:05:22.014Z,14.88
2022-09-09T10:05:48.380Z,15.15
2022-09-09T10:06:10.751Z,15.30
2022-09-09T10:06:39.169Z,15.32
2022-09-09T10:07:12.413Z,15.55
2022-09-09T10:07:35.111Z,14.95
2022-09-09T10:08:10.249Z,15.00
2022-09-09T10:08:46.720Z,14.88
2022-09-09T10:09:27.713Z,15.18
2022-09-09T10:09:56.031Z,14.70
2022-09-09T10:10:36.911Z,14.55
2022-09-09T10:11:22.500Z,15.10
2022-09-09T10:12:32.140Z,14.45
2022-09-09T10:13:02.874Z,15.93
2022-09-09T10:13:39.212Z,15.20
2022-09-09T10:14:21.890Z,15.30
2022-09-09T10:15:01.387Z,14.88
2022-09-09T10:16:02.024Z,14.48
2022-09-09T10:16:33.649Z,14.77
2022-09-09T10:17:32.931Z,14.27
2022-09-09T10:18:19.223Z,14.23
2022-09-09T10:19:01.488Z,14.25
2022-09-09T10:19:34.790Z,14.82
2022-09-09T10:20:17.260Z,15.32
2022-09-09T10:20:56.616Z,14.35
2022-09-09T10:21:19.191Z,14.85
2022-09-09T10:22:02.178Z,14.13
2022-09-09T10:22:35.493Z,13.95
2022-09-09T10:23:23.079Z,14.73
2022-09-09T10:24:06.309Z,14.52
2022-09-09T10:24:42.728Z,14.25
2022-09-09T10:25:36.885Z,14.23
2022-09-09T10:26:23.417Z,14.27
2022-09-09T10:27:01.139Z,14.40
2022-09-09T10:27:45.417Z,14.27
2022-09-09T10:28:49.521Z,14.55
2022-09-09T10:29:46.267Z,14.65
2022-09-09T10:30:34.746Z,13.93
2022-09-09T10:31:15.097Z,14.68
2022-09-09T10:32:15.205Z,14.00
2022-09-09T10:32:42.658Z,13.73
2022-09-09T10:33:11.092Z,13.90
2022-09-09T10:34:05.302Z,14.05
2022-09-09T10:34:57.918Z,13.55
2022-09-09T10:35:49.663Z,13.20
2022-09-09T10:36:19.275Z,13.73
2022-09-09T10:36:47.773Z,13.30
2022-09-09T10:37:30.434Z,13.50
2022-09-09T10:38:15.088Z,13.55
2022-09-09T10:38:46.867Z,13.48
2022-09-09T10:39:40.636Z,14.13
2022-09-09T10:40:31.665Z,13.50
2022-09-09T10:40:59.555Z,13.50
2022-09-09T10:41:35.956Z,13.57
2022-09-09T10:42:09.140Z,14.15
2022-09-09T10:42:34.383Z,12.95